createdAt,value
2019-04-22T11:39:36.667Z,27.80
2019-04-22T11:41:42.399Z,28.00
2019-04-22T11:47:57.236Z,27.90
2019-04-22T11:54:12.729Z,27.20
2019-04-22T11:58:24.627Z,27.10
2019-04-22T12:00:34.976Z,28.00
2019-04-22T12:02:40.942Z,28.10
2019-04-22T12:04:45.947Z,28.50
2019-04-22T12:08:57.572Z,26.90
2019-04-22T12:11:05.797Z,27.20
2019-04-22T12:13:10.220Z,27.60
2019-04-22T12:15:16.913Z,28.10
2019-04-22T12:17:22.257Z,29.10
2019-04-22T12:19:29.008Z,28.80
2019-04-22T12:23:41.257Z,26.70
2019-04-22T12:25:54.468Z,27.60
2019-04-22T12:32:05.185Z,29.50
2019-04-22T12:37:39.815Z,32.70
2019-04-22T12:39:39.141Z,30.90
2019-04-22T12:41:44.659Z,32.10
2019-04-22T12:43:51.472Z,31.50
2019-04-22T12:45:56.665Z,32.20
2019-04-22T12:48:02.113Z,30.40
2019-04-22T12:50:19.700Z,31.40
2019-04-22T12:52:24.489Z,31.40
2019-04-22T12:54:24.621Z,31.00
2019-04-22T12:56:30.013Z,30.80
2019-04-22T12:58:35.783Z,31.20
2019-04-22T13:00:42.835Z,30.00
2019-04-22T13:02:49.134Z,30.00
2019-04-22T13:04:54.329Z,30.40
2019-04-22T13:06:59.867Z,30.60
2019-04-22T13:09:08.504Z,30.70
2019-04-22T13:11:17.675Z,29.70
2019-04-22T13:13:20.787Z,30.00
2019-04-22T13:15:26.730Z,30.40
2019-04-22T13:17:32.968Z,29.30
2019-04-22T13:19:38.247Z,29.50
2019-04-22T13:21:44.737Z,29.70
2019-04-22T13:23:50.815Z,29.60
2019-04-22T13:25:56.767Z,29.90
2019-04-22T13:28:02.992Z,29.80
2019-04-22T13:30:12.289Z,29.50
2019-04-22T13:32:18.641Z,29.70
2019-04-22T13:34:30.431Z,30.60
2019-04-22T13:36:31.795Z,30.80
2019-04-22T13:38:38.482Z,29.70
2019-04-22T13:40:57.841Z,29.80
2019-04-22T13:42:51.198Z,29.60
2019-04-22T13:44:58.018Z,30.30
2019-04-22T13:47:26.842Z,29.60
2019-04-22T13:49:46.229Z,29.50
2019-04-22T13:51:48.768Z,29.90
2019-04-22T13:54:24.305Z,29.80
2019-04-22T13:56:08.735Z,30.00
2019-04-22T13:57:53.662Z,30.00
2019-04-22T13:59:48.956Z,29.60
2019-04-22T14:02:12.761Z,29.40
2019-04-22T14:04:24.908Z,29.50
2019-04-22T14:06:31.116Z,29.20
2019-04-22T14:08:37.566Z,29.10
2019-04-22T14:10:42.853Z,29.80
2019-04-22T14:12:48.767Z,29.40
2019-04-22T14:14:54.461Z,29.40
2019-04-22T14:17:01.112Z,29.80
2019-04-22T14:19:07.686Z,29.90
2019-04-22T14:21:14.790Z,29.70
2019-04-22T14:23:20.505Z,29.50
2019-04-22T14:25:25.345Z,29.70
2019-04-22T14:27:41.790Z,29.10
2019-04-22T14:29:37.739Z,29.20
2019-04-22T14:31:42.816Z,29.00
2019-04-22T14:33:53.567Z,29.20
2019-04-22T14:35:54.238Z,29.20
2019-04-22T14:38:01.333Z,30.00
2019-04-22T14:40:09.273Z,28.50
2019-04-22T14:42:34.433Z,28.60
2019-04-22T14:46:58.240Z,29.10
2019-04-22T14:48:57.600Z,29.50
2019-04-22T14:50:57.582Z,28.80
2019-04-22T14:53:11.226Z,28.30
2019-04-22T14:55:06.044Z,28.50
2019-04-22T14:57:03.226Z,29.10
2019-04-22T14:59:09.283Z,28.30
2019-04-22T15:01:14.890Z,29.10
2019-04-22T15:03:21.705Z,28.70
2019-04-22T15:05:28.223Z,28.90
2019-04-22T15:07:33.343Z,29.10
2019-04-22T15:09:39.784Z,29.20
2019-04-22T15:11:57.022Z,29.90
2019-04-22T15:13:51.818Z,32.10
2019-04-22T15:16:23.600Z,33.00
2019-04-22T15:18:41.932Z,33.90
2019-04-22T15:20:56.546Z,34.10
2019-04-22T15:23:02.817Z,34.60
2019-04-22T15:25:08.447Z,34.40
2019-04-22T15:27:14.225Z,34.50
2019-04-22T15:29:19.445Z,34.10
2019-04-22T15:31:25.134Z,34.60
2019-04-22T15:33:30.095Z,34.60
2019-04-22T15:35:35.511Z,34.20
2019-04-22T15:37:43.335Z,35.50
2019-04-22T15:39:49.760Z,36.10
2019-04-22T15:42:00.401Z,35.70
2019-04-22T15:44:03.615Z,35.90
2019-04-22T15:46:09.842Z,36.30
2019-04-22T15:48:16.771Z,35.90
2019-04-22T15:50:22.469Z,36.10
2019-04-22T15:52:33.536Z,36.10
2019-04-22T15:54:34.594Z,35.50
2019-04-22T15:56:41.048Z,35.70
2019-04-22T15:58:47.864Z,35.80
2019-04-22T16:01:05.285Z,36.10
2019-04-22T16:03:03.041Z,35.80
2019-04-22T16:05:08.769Z,36.00
2019-04-22T16:07:20.591Z,35.70
2019-04-22T16:09:25.070Z,36.00
2019-04-22T16:11:31.854Z,36.10
2019-04-22T16:13:38.590Z,35.50
2019-04-22T16:15:44.589Z,35.20
2019-04-22T16:17:50.850Z,35.30
2019-04-22T16:19:57.179Z,35.20
2019-04-22T16:22:08.693Z,35.20
2019-04-22T16:24:38.205Z,35.60
2019-04-22T16:26:52.165Z,36.20
2019-04-22T16:28:58.138Z,35.30
2019-04-22T16:31:04.682Z,35.00
2019-04-22T16:33:09.998Z,35.20
2019-04-22T16:35:16.718Z,35.60
2019-04-22T16:37:23.048Z,35.40
2019-04-22T16:39:28.856Z,35.60
2019-04-22T16:41:34.802Z,35.30
2019-04-22T16:43:40.703Z,35.20
2019-04-22T16:45:47.526Z,35.10
2019-04-22T16:47:53.718Z,35.10
2019-04-22T16:49:59.606Z,35.30
2019-04-22T16:52:05.769Z,35.10
2019-04-22T16:54:11.788Z,34.80
2019-04-22T16:56:17.154Z,34.90
2019-04-22T16:58:23.167Z,35.50
2019-04-22T17:00:28.990Z,35.70
2019-04-22T17:02:50.638Z,35.30
2019-04-22T17:05:18.005Z,35.60
2019-04-22T17:07:24.460Z,35.30
2019-04-22T17:09:30.024Z,35.10
2019-04-22T17:11:35.944Z,35.40
2019-04-22T17:13:42.494Z,35.00
2019-04-22T17:15:49.335Z,34.90
2019-04-22T17:17:55.015Z,34.90
2019-04-22T17:20:00.115Z,34.90
2019-04-22T17:22:05.867Z,35.10
2019-04-22T17:24:11.949Z,35.30
2019-04-22T17:26:18.744Z,35.30
2019-04-22T17:28:23.988Z,35.20
2019-04-22T17:30:29.302Z,35.40
2019-04-22T17:32:35.643Z,35.20
2019-04-22T17:34:41.327Z,35.60
2019-04-22T17:36:46.402Z,35.40
2019-04-22T17:39:01.189Z,35.60
2019-04-22T17:41:11.612Z,35.80
2019-04-22T17:43:36.432Z,35.40
2019-04-22T17:45:49.238Z,35.70
2019-04-22T17:48:15.532Z,35.50
2019-04-22T17:50:28.544Z,35.30
2019-04-22T17:52:30.874Z,35.20
2019-04-22T17:54:38.602Z,34.90
2019-04-22T17:56:52.454Z,35.40
2019-04-22T17:58:58.773Z,35.50
2019-04-22T18:01:02.774Z,35.80
2019-04-22T18:03:01.819Z,35.80
2019-04-22T18:05:00.911Z,35.70
2019-04-22T18:07:24.468Z,35.80
2019-04-22T18:09:53.678Z,36.30
2019-04-22T18:11:56.327Z,36.50
2019-04-22T18:13:54.288Z,35.90
2019-04-22T18:15:57.990Z,36.30
2019-04-22T18:18:06.395Z,35.60
2019-04-22T18:19:57.946Z,35.70
2019-04-22T18:22:10.962Z,35.80
2019-04-22T18:24:10.660Z,35.40
2019-04-22T18:26:24.591Z,35.80
2019-04-22T18:28:37.877Z,36.00
2019-04-22T18:30:33.488Z,35.70
2019-04-22T18:32:45.097Z,36.00
2019-04-22T18:34:44.322Z,35.80
2019-04-22T18:37:01.769Z,36.00
2019-04-22T18:39:11.187Z,35.50
2019-04-22T18:41:12.545Z,35.70
2019-04-22T18:43:24.613Z,35.50
2019-04-22T18:45:52.732Z,35.50
2019-04-22T18:47:32.345Z,35.60
2019-04-22T18:49:42.899Z,35.50
2019-04-22T18:52:04.518Z,35.30
2019-04-22T18:54:36.622Z,35.40
2019-04-22T18:56:47.688Z,35.70
2019-04-22T18:58:49.009Z,35.70
2019-04-22T19:00:45.860Z,35.40
2019-04-22T19:02:59.365Z,35.70
2019-04-22T19:05:08.444Z,35.90
2019-04-22T19:07:32.473Z,36.10
2019-04-22T19:09:45.334Z,36.40
2019-04-22T19:11:53.910Z,36.50
2019-04-22T19:14:43.623Z,36.60
2019-04-22T19:16:13.044Z,36.80
2019-04-22T19:18:12.747Z,37.00
2019-04-22T19:20:20.680Z,37.40
2019-04-22T19:22:19.544Z,37.50
2019-04-22T19:24:21.347Z,37.70
2019-04-22T19:26:44.653Z,37.80
2019-04-22T19:28:40.498Z,37.80
2019-04-22T19:30:50.732Z,38.20
2019-04-22T19:32:51.722Z,38.50
2019-04-22T19:34:56.903Z,38.60
2019-04-22T19:37:04.923Z,38.60
2019-04-22T19:39:09.077Z,38.70
2019-04-22T19:41:24.137Z,39.00
2019-04-22T19:43:30.972Z,39.10
2019-04-22T19:45:33.054Z,39.50
2019-04-22T19:47:53.106Z,39.10
2019-04-22T19:49:52.881Z,39.20
2019-04-22T19:51:58.423Z,39.30
2019-04-22T19:53:55.951Z,39.30
2019-04-22T19:56:01.525Z,39.40
2019-04-22T19:58:07.358Z,39.50
2019-04-22T20:00:23.965Z,39.60
2019-04-22T20:02:51.388Z,39.80
2019-04-22T20:05:13.187Z,39.70
2019-04-22T20:07:15.470Z,39.70
2019-04-22T20:09:33.378Z,39.70
2019-04-22T20:11:29.881Z,39.70
2019-04-22T20:13:36.505Z,39.70
2019-04-22T20:15:37.165Z,39.90
2019-04-22T20:18:11.701Z,39.90
2019-04-22T20:20:06.406Z,40.00
2019-04-22T20:22:03.005Z,39.80
2019-04-22T20:24:01.288Z,39.80
2019-04-22T20:26:13.595Z,39.70
2019-04-22T20:28:25.586Z,39.80
2019-04-22T20:30:34.786Z,39.80
2019-04-22T20:32:37.343Z,39.70
2019-04-22T20:34:50.800Z,39.60
2019-04-22T20:37:10.728Z,39.50
2019-04-22T20:38:56.539Z,39.40
2019-04-22T20:41:05.750Z,39.50
2019-04-22T20:43:17.915Z,39.40
2019-04-22T20:45:25.168Z,39.30
2019-04-22T20:47:20.717Z,39.30
2019-04-22T20:49:33.775Z,39.30
2019-04-22T20:51:47.578Z,39.20
2019-04-22T20:53:52.204Z,39.20
2019-04-22T20:55:52.427Z,39.30
2019-04-22T20:58:02.341Z,39.90
2019-04-22T21:00:06.038Z,39.20
2019-04-22T21:02:12.167Z,39.40
2019-04-22T21:04:11.527Z,39.40
2019-04-22T21:06:27.642Z,39.60
2019-04-22T21:08:38.952Z,39.50
2019-04-22T21:10:41.271Z,39.60
2019-04-22T21:12:41.401Z,39.70
2019-04-22T21:15:08.091Z,39.40
2019-04-22T21:17:10.255Z,39.60
2019-04-22T21:19:21.693Z,39.50
2019-04-22T21:21:25.200Z,39.30
2019-04-22T21:23:29.209Z,39.40
2019-04-22T21:25:34.106Z,39.60
2019-04-22T21:27:52.575Z,39.50
2019-04-22T21:29:49.265Z,39.50
2019-04-22T21:32:03.782Z,39.60
2019-04-22T21:34:05.265Z,39.40
2019-04-22T21:36:20.574Z,39.30
2019-04-22T21:38:21.597Z,39.30
2019-04-22T21:40:30.517Z,39.10
2019-04-22T21:42:43.221Z,39.20
2019-04-22T21:44:38.109Z,39.20
2019-04-22T21:46:50.933Z,39.20
2019-04-22T21:49:01.363Z,39.30
2019-04-22T21:51:04.812Z,39.20
2019-04-22T21:53:14.511Z,39.30
2019-04-22T21:55:16.935Z,39.40
2019-04-22T21:57:48.933Z,39.40
2019-04-22T21:59:47.096Z,39.30
2019-04-22T22:01:59.827Z,39.40
2019-04-22T22:04:01.336Z,39.10
2019-04-22T22:06:04.503Z,39.20
2019-04-22T22:08:19.154Z,39.30
2019-04-22T22:10:24.596Z,39.10
2019-04-22T22:12:26.648Z,39.10
2019-04-22T22:14:36.454Z,39.10
2019-04-22T22:16:34.935Z,39.20
2019-04-22T22:18:52.774Z,39.10
2019-04-22T22:21:15.291Z,39.60
2019-04-22T22:23:08.011Z,38.90
2019-04-22T22:25:10.525Z,39.00
2019-04-22T22:27:14.250Z,39.00
2019-04-22T22:29:33.952Z,38.90
2019-04-22T22:31:38.114Z,38.80
2019-04-22T22:33:40.501Z,38.90
2019-04-22T22:35:35.726Z,38.90
2019-04-22T22:37:44.611Z,39.10
2019-04-22T22:39:42.909Z,39.70
2019-04-22T22:41:39.568Z,39.30
2019-04-22T22:43:49.100Z,39.10
2019-04-22T22:46:06.284Z,39.20
2019-04-22T22:48:31.409Z,39.10
2019-04-22T22:50:28.288Z,39.10
2019-04-22T22:54:42.983Z,39.20
2019-04-22T22:56:57.604Z,39.30
2019-04-22T22:58:52.433Z,39.50
2019-04-22T23:00:54.993Z,39.30
2019-04-22T23:05:09.816Z,39.50
2019-04-22T23:07:25.618Z,39.70
2019-04-22T23:09:27.311Z,39.20
2019-04-22T23:11:52.290Z,39.80
2019-04-22T23:13:57.788Z,39.60
2019-04-22T23:15:39.482Z,39.70
2019-04-22T23:17:34.296Z,39.70
2019-04-22T23:19:44.726Z,39.70
2019-04-22T23:21:50.287Z,40.30
2019-04-22T23:24:12.891Z,40.30
2019-04-22T23:26:42.020Z,40.10
2019-04-22T23:28:56.115Z,40.70
2019-04-22T23:31:14.045Z,41.40
2019-04-22T23:33:26.233Z,40.90
2019-04-22T23:35:48.840Z,40.70
2019-04-22T23:37:58.699Z,41.30
2019-04-22T23:40:16.159Z,41.00
2019-04-22T23:42:18.938Z,41.10
2019-04-22T23:46:32.306Z,41.70
2019-04-22T23:48:27.999Z,41.40
2019-04-22T23:50:45.972Z,41.30
2019-04-22T23:53:00.636Z,41.70
2019-04-22T23:55:10.190Z,41.40
2019-04-22T23:57:09.394Z,41.50
2019-04-22T23:59:38.394Z,41.70
